Time;durP1;ratioP1;P1;durP2;ratioP2;P2;SDS_P1;SDS_P2;PMS_P1;PMS_P2;Temp;Humidity;BMP_temperature;BMP_pressure;BME280_temperature;BME280_humidity;BME280_pressure;Samples;Min_cycle;Max_cycle;Signal;HPM_P1;HPM_P2
2023/07/20 00:02:00;;;;;;;9.00;3.00;;;15.90;99.90;;;;;;5009361;28;20056;-88
2023/07/20 00:04:25;;;;;;;7.45;2.83;;;15.90;99.90;;;;;;5024102;28;20120;-89
2023/07/20 00:06:51;;;;;;;6.53;2.78;;;15.90;99.90;;;;;;5019600;28;20064;-89
2023/07/20 00:09:17;;;;;;;8.25;2.90;;;15.90;99.90;;;;;;5005535;28;20414;-89
2023/07/20 00:11:50;;;;;;;6.97;2.50;;;15.90;99.90;;;;;;5023044;28;20389;-89
2023/07/20 00:14:16;;;;;;;7.78;2.50;;;15.90;99.90;;;;;;5040206;28;20420;-89
2023/07/20 00:16:42;;;;;;;6.40;2.40;;;15.90;99.90;;;;;;5026022;28;20282;-89
2023/07/20 00:19:10;;;;;;;8.48;2.60;;;15.90;99.90;;;;;;5007484;28;20037;-89
2023/07/20 00:21:36;;;;;;;5.88;2.38;;;15.90;99.90;;;;;;5027368;28;20036;-88
2023/07/20 00:24:01;;;;;;;6.18;2.38;;;15.90;99.90;;;;;;5011191;28;20386;-89
2023/07/20 00:26:27;;;;;;;7.90;2.40;;;15.90;99.90;;;;;;5014809;28;20041;-89
2023/07/20 00:28:53;;;;;;;6.97;2.40;;;15.90;99.90;;;;;;5013020;28;20033;-89
2023/07/20 00:31:18;;;;;;;6.18;2.28;;;15.90;99.90;;;;;;5010982;28;20045;-88
2023/07/20 00:33:44;;;;;;;6.70;2.22;;;15.90;99.90;;;;;;5022716;28;20052;-89
2023/07/20 00:36:10;;;;;;;7.68;2.33;;;15.90;99.90;;;;;;5008451;28;20053;-89
2023/07/20 00:38:35;;;;;;;7.40;2.50;;;15.90;99.90;;;;;;5032336;28;20517;-89
2023/07/20 00:41:01;;;;;;;7.00;2.50;;;15.90;99.90;;;;;;4992204;28;20128;-89
2023/07/20 00:43:27;;;;;;;7.15;2.30;;;15.80;99.90;;;;;;5008807;28;20038;-90
2023/07/20 00:45:53;;;;;;;6.25;2.20;;;15.80;99.90;;;;;;5024873;28;20047;-89
2023/07/20 00:48:19;;;;;;;6.95;2.40;;;15.80;99.90;;;;;;5026202;28;20037;-89
2023/07/20 00:50:46;;;;;;;5.72;2.20;;;15.80;99.90;;;;;;5012373;28;20242;-89
2023/07/20 00:53:12;;;;;;;8.32;2.20;;;15.70;99.90;;;;;;5011520;28;20509;-89
2023/07/20 00:55:37;;;;;;;6.00;2.20;;;15.70;99.90;;;;;;5027281;28;20079;-89
2023/07/20 00:58:04;;;;;;;5.47;2.00;;;15.60;99.90;;;;;;5026048;28;20068;-90
2023/07/20 01:00:30;;;;;;;3.88;1.80;;;15.50;99.90;;;;;;5046874;28;20083;-89
2023/07/20 01:02:56;;;;;;;5.97;2.10;;;15.50;99.90;;;;;;5029924;28;20488;-88
2023/07/20 01:05:26;;;;;;;6.20;2.08;;;15.50;99.90;;;;;;5029112;28;20033;-89
2023/07/20 01:07:52;;;;;;;9.38;3.55;;;15.40;99.90;;;;;;5030146;28;20037;-89
2023/07/20 01:10:31;;;;;;;6.43;2.10;;;15.40;99.90;;;;;;5029732;28;20045;-89
2023/07/20 01:12:57;;;;;;;6.18;2.25;;;15.30;99.90;;;;;;5026109;28;20464;-90
2023/07/20 01:15:23;;;;;;;5.13;2.00;;;15.30;99.90;;;;;;5011474;28;20419;-89
2023/07/20 01:17:49;;;;;;;6.20;2.10;;;15.30;99.90;;;;;;5012664;28;20102;-89
2023/07/20 01:20:17;;;;;;;5.13;2.00;;;15.30;99.90;;;;;;5023563;28;20275;-89
2023/07/20 01:23:17;;;;;;;6.40;2.00;;;15.20;99.90;;;;;;5029313;28;20069;-89
2023/07/20 01:26:02;;;;;;;5.35;2.22;;;15.30;99.90;;;;;;5044435;28;20033;-88
2023/07/20 01:28:36;;;;;;;5.47;1.90;;;15.20;99.90;;;;;;5026424;28;20040;-89
2023/07/20 01:31:17;;;;;;;6.40;2.10;;;15.20;99.90;;;;;;5026513;28;20032;-89
2023/07/20 01:33:46;;;;;;;5.43;2.00;;;15.10;99.90;;;;;;5045714;28;20064;-89
2023/07/20 01:36:12;;;;;;;6.22;2.00;;;15.10;99.90;;;;;;5042225;28;20048;-89
2023/07/20 01:38:38;;;;;;;6.07;2.30;;;15.10;99.90;;;;;;4996792;28;20083;-88
2023/07/20 01:41:05;;;;;;;4.93;1.85;;;15.00;99.90;;;;;;5011576;28;20048;-89
2023/07/20 01:43:31;;;;;;;5.90;2.10;;;15.10;99.90;;;;;;5001309;28;20064;-89
2023/07/20 01:45:57;;;;;;;5.88;2.10;;;15.00;99.90;;;;;;5022062;28;20509;-88
2023/07/20 01:48:23;;;;;;;6.72;2.10;;;15.00;99.90;;;;;;4998029;28;20033;-89
2023/07/20 01:50:48;;;;;;;7.15;2.30;;;15.00;99.90;;;;;;5021270;28;20071;-89
2023/07/20 01:53:14;;;;;;;6.50;2.00;;;14.90;99.90;;;;;;5013689;28;20049;-89
2023/07/20 01:55:40;;;;;;;4.88;1.95;;;14.90;99.90;;;;;;5012318;28;20041;-88
2023/07/20 01:58:06;;;;;;;7.68;2.15;;;14.90;99.90;;;;;;5033383;28;20041;-89
2023/07/20 02:00:32;;;;;;;6.35;2.38;;;14.90;99.90;;;;;;5010518;28;20417;-89
2023/07/20 02:02:58;;;;;;;6.07;2.20;;;14.80;99.90;;;;;;5012033;28;20045;-89
2023/07/20 02:05:24;;;;;;;7.38;2.30;;;14.80;99.90;;;;;;5023490;28;20048;-88
2023/07/20 02:07:49;;;;;;;5.68;2.20;;;14.70;99.90;;;;;;4985047;28;20055;-88
2023/07/20 02:10:16;;;;;;;6.55;2.40;;;14.70;99.90;;;;;;5026337;28;20048;-89
2023/07/20 02:12:41;;;;;;;5.70;2.17;;;14.70;99.90;;;;;;5024579;28;20044;-89
2023/07/20 02:15:08;;;;;;;7.30;2.40;;;14.70;99.90;;;;;;5012970;28;20037;-89
2023/07/20 02:17:34;;;;;;;6.78;2.22;;;14.70;99.90;;;;;;4997049;28;20036;-89
2023/07/20 02:19:59;;;;;;;7.68;2.20;;;14.70;99.90;;;;;;5025768;28;20575;-89
2023/07/20 02:22:25;;;;;;;7.68;2.20;;;14.60;99.90;;;;;;5017421;28;20042;-89
2023/07/20 02:24:51;;;;;;;5.72;2.22;;;14.50;99.90;;;;;;5019721;28;20044;-89
2023/07/20 02:27:17;;;;;;;6.65;2.10;;;14.50;99.90;;;;;;5011481;28;20444;-89
2023/07/20 02:29:43;;;;;;;7.00;2.22;;;14.50;99.90;;;;;;5009976;28;20041;-89
2023/07/20 02:32:09;;;;;;;5.38;2.17;;;14.50;99.90;;;;;;5026444;28;20041;-89
2023/07/20 02:34:35;;;;;;;5.80;2.10;;;14.50;99.90;;;;;;5025351;28;20105;-89
2023/07/20 02:37:01;;;;;;;5.28;2.00;;;14.50;99.90;;;;;;4993322;28;20485;-89
2023/07/20 02:39:30;;;;;;;5.10;2.00;;;14.50;99.90;;;;;;5011209;28;20043;-89
2023/07/20 02:41:56;;;;;;;5.90;2.00;;;14.50;99.90;;;;;;5024018;28;20052;-89
2023/07/20 02:44:22;;;;;;;5.60;2.00;;;14.50;99.90;;;;;;5008959;28;20037;-89
2023/07/20 02:46:49;;;;;;;5.07;1.90;;;14.40;99.90;;;;;;5010709;28;20037;-88
2023/07/20 02:49:15;;;;;;;6.90;2.03;;;14.40;99.90;;;;;;5043369;28;20102;-89
2023/07/20 02:51:41;;;;;;;5.03;1.98;;;14.40;99.90;;;;;;5011452;28;20098;-89
2023/07/20 02:54:08;;;;;;;6.60;2.17;;;14.40;99.90;;;;;;4993682;28;20045;-88
2023/07/20 02:56:33;;;;;;;6.68;2.00;;;14.40;99.90;;;;;;5024106;28;20037;-89
2023/07/20 02:59:02;;;;;;;6.35;2.03;;;14.30;99.90;;;;;;5020441;28;20036;-89
2023/07/20 03:01:29;;;;;;;7.28;2.25;;;14.30;99.90;;;;;;5025981;28;20063;-89
2023/07/20 03:03:55;;;;;;;7.03;2.20;;;14.30;99.90;;;;;;5011354;28;20045;-89
2023/07/20 03:06:21;;;;;;;7.00;2.35;;;14.20;99.90;;;;;;5025047;28;20144;-88
2023/07/20 03:08:48;;;;;;;6.78;2.22;;;14.20;99.90;;;;;;5009668;28;20056;-88
2023/07/20 03:11:18;;;;;;;6.38;2.25;;;14.20;99.90;;;;;;5026078;28;20041;-89
2023/07/20 03:13:44;;;;;;;7.20;2.80;;;14.20;99.90;;;;;;5027523;28;20055;-88
2023/07/20 03:16:12;;;;;;;7.28;2.70;;;14.10;99.90;;;;;;5042275;28;20523;-88
2023/07/20 03:18:41;;;;;;;7.72;3.33;;;14.10;99.90;;;;;;5026722;28;20041;-89
2023/07/20 03:21:08;;;;;;;8.68;3.22;;;14.10;99.90;;;;;;5022384;28;20512;-89
2023/07/20 03:23:34;;;;;;;7.60;3.38;;;14.00;99.90;;;;;;5040003;28;20033;-88
2023/07/20 03:26:01;;;;;;;8.48;3.47;;;14.00;99.90;;;;;;5008619;28;20044;-89
2023/07/20 03:28:26;;;;;;;8.18;3.42;;;14.00;99.90;;;;;;5020155;28;20040;-88
2023/07/20 03:30:56;;;;;;;8.82;3.88;;;14.00;99.90;;;;;;5009532;28;20045;-88
2023/07/20 03:33:31;;;;;;;10.20;3.90;;;14.00;99.90;;;;;;5022180;28;20533;-88
2023/07/20 03:35:58;;;;;;;9.55;4.20;;;14.10;99.90;;;;;;5008568;28;20179;-89
2023/07/20 03:38:25;;;;;;;8.88;3.90;;;14.00;99.90;;;;;;5026782;28;20052;-88
2023/07/20 03:40:56;;;;;;;10.63;4.20;;;14.00;99.90;;;;;;5041801;28;20497;-89
2023/07/20 03:43:23;;;;;;;8.75;4.03;;;14.00;99.90;;;;;;5019660;28;20359;-89
2023/07/20 03:45:49;;;;;;;8.57;4.03;;;14.00;99.90;;;;;;5026467;28;20122;-89
2023/07/20 03:48:21;;;;;;;8.40;4.22;;;14.00;99.90;;;;;;5025242;28;20303;-88
2023/07/20 03:50:48;;;;;;;11.13;4.43;;;13.90;99.90;;;;;;5025082;28;20076;-88
2023/07/20 03:53:15;;;;;;;8.43;4.00;;;14.00;99.90;;;;;;5026020;28;20075;-88
2023/07/20 03:55:44;;;;;;;10.25;4.10;;;13.90;99.90;;;;;;5025468;28;20362;-88
2023/07/20 03:58:10;;;;;;;10.07;3.88;;;13.90;99.90;;;;;;5041546;28;20045;-88
2023/07/20 04:00:36;;;;;;;7.50;3.75;;;13.90;99.90;;;;;;5009961;28;20052;-88
2023/07/20 04:03:01;;;;;;;8.05;4.00;;;13.80;99.90;;;;;;5023905;28;20041;-88
2023/07/20 04:05:27;;;;;;;9.73;4.05;;;13.70;99.90;;;;;;5023090;28;20051;-88
2023/07/20 04:07:53;;;;;;;8.57;3.78;;;13.70;99.90;;;;;;5016734;28;20482;-88
2023/07/20 04:10:19;;;;;;;8.18;3.75;;;13.80;99.90;;;;;;5043844;28;20061;-88
2023/07/20 04:12:46;;;;;;;9.23;3.75;;;13.70;99.90;;;;;;5007953;28;20046;-89
2023/07/20 04:15:13;;;;;;;9.73;4.00;;;13.70;99.90;;;;;;5040156;28;20049;-88
2023/07/20 04:17:40;;;;;;;8.98;4.00;;;13.70;99.90;;;;;;4991616;28;20037;-89
2023/07/20 04:20:07;;;;;;;8.60;3.92;;;13.80;99.90;;;;;;5009578;28;20041;-88
2023/07/20 04:22:32;;;;;;;11.30;4.20;;;13.80;99.90;;;;;;5010088;28;20044;-88
2023/07/20 04:24:58;;;;;;;9.63;3.97;;;13.80;99.90;;;;;;5013277;28;20037;-89
2023/07/20 04:27:24;;;;;;;9.18;4.10;;;13.80;99.90;;;;;;5027002;28;20120;-88
2023/07/20 04:29:50;;;;;;;9.75;4.30;;;13.80;99.90;;;;;;5022536;28;20608;-88
2023/07/20 04:32:15;;;;;;;10.05;4.13;;;13.80;99.90;;;;;;5022705;28;20025;-89
2023/07/20 04:34:43;;;;;;;10.65;4.03;;;13.80;99.90;;;;;;5045858;28;20082;-88
2023/07/20 04:37:08;;;;;;;9.23;4.07;;;13.80;99.90;;;;;;5020463;28;20037;-88
2023/07/20 04:39:34;;;;;;;8.68;4.20;;;13.90;99.90;;;;;;4995803;28;20041;-88
2023/07/20 04:42:00;;;;;;;8.85;4.30;;;13.90;99.90;;;;;;5023284;28;20037;-88
2023/07/20 04:44:26;;;;;;;8.88;4.22;;;13.80;99.90;;;;;;5031066;28;20033;-88
2023/07/20 04:46:51;;;;;;;9.38;4.55;;;13.80;99.90;;;;;;4996612;28;20508;-89
2023/07/20 04:49:17;;;;;;;13.05;4.30;;;13.90;99.90;;;;;;5013059;28;20033;-88
2023/07/20 04:51:43;;;;;;;10.05;4.43;;;13.90;99.90;;;;;;5013084;28;20156;-88
2023/07/20 04:54:08;;;;;;;8.30;4.00;;;14.10;99.90;;;;;;5013380;28;20106;-89
2023/07/20 04:56:34;;;;;;;8.32;3.67;;;14.20;99.90;;;;;;5006649;28;20043;-89
2023/07/20 04:59:00;;;;;;;9.45;4.03;;;14.30;99.90;;;;;;5037021;28;20042;-89
2023/07/20 05:01:26;;;;;;;9.05;3.97;;;14.40;99.90;;;;;;5024580;28;20106;-89
2023/07/20 05:03:52;;;;;;;8.93;3.53;;;14.40;99.90;;;;;;5025435;28;20041;-89
2023/07/20 05:06:18;;;;;;;8.57;3.60;;;14.50;99.90;;;;;;4994977;28;20128;-89
2023/07/20 05:08:44;;;;;;;6.70;3.00;;;14.50;99.90;;;;;;5040357;28;20576;-89
2023/07/20 05:11:11;;;;;;;8.85;3.30;;;14.60;99.90;;;;;;4995204;28;20051;-89
2023/07/20 05:13:37;;;;;;;6.93;2.78;;;14.70;99.90;;;;;;5011667;28;20048;-89
2023/07/20 05:16:03;;;;;;;11.10;3.33;;;14.80;99.90;;;;;;5010969;28;20041;-89
2023/07/20 05:18:29;;;;;;;8.38;3.15;;;14.90;99.90;;;;;;5019776;28;20033;-90
2023/07/20 05:20:55;;;;;;;7.95;2.80;;;15.00;99.90;;;;;;5021583;28;20036;-89
2023/07/20 05:23:21;;;;;;;8.35;2.85;;;15.10;99.90;;;;;;5042004;28;20447;-90
2023/07/20 05:25:53;;;;;;;7.28;2.60;;;15.20;99.90;;;;;;4996101;28;20041;-90
2023/07/20 05:28:19;;;;;;;9.10;2.45;;;15.30;99.90;;;;;;5023905;28;20065;-90
2023/07/20 05:30:44;;;;;;;8.65;2.95;;;15.40;99.90;;;;;;5006336;28;20083;-90
2023/07/20 05:33:10;;;;;;;8.02;2.80;;;15.40;99.90;;;;;;5007942;28;20501;-88
2023/07/20 05:35:37;;;;;;;8.18;3.30;;;15.50;99.90;;;;;;5008560;28;20075;-89
2023/07/20 05:38:04;;;;;;;8.00;3.35;;;15.60;99.90;;;;;;5043938;28;20482;-90
2023/07/20 05:40:30;;;;;;;7.18;3.10;;;15.60;99.90;;;;;;4999754;28;20047;-90
2023/07/20 05:42:56;;;;;;;10.68;3.30;;;15.70;99.90;;;;;;5016193;28;20037;-90
2023/07/20 05:45:22;;;;;;;10.13;2.90;;;15.80;99.90;;;;;;4995934;28;20037;-90
2023/07/20 05:47:48;;;;;;;7.70;3.00;;;15.80;99.90;;;;;;5041478;28;20041;-90
2023/07/20 05:50:14;;;;;;;8.18;2.83;;;15.90;99.90;;;;;;5032557;28;20055;-90
2023/07/20 05:52:40;;;;;;;9.63;2.97;;;16.00;99.90;;;;;;5017171;28;20073;-89
2023/07/20 05:55:07;;;;;;;9.27;2.08;;;16.00;99.90;;;;;;5031580;28;20041;-90
2023/07/20 05:57:33;;;;;;;4.50;1.50;;;16.10;99.90;;;;;;5033264;28;20052;-89
2023/07/20 05:59:59;;;;;;;5.95;1.65;;;16.10;99.90;;;;;;5014100;28;20140;-89
2023/07/20 06:02:24;;;;;;;6.20;1.70;;;16.20;99.90;;;;;;5039034;28;20549;-90
2023/07/20 06:04:50;;;;;;;4.90;1.50;;;16.30;99.90;;;;;;4987706;28;20036;-89
2023/07/20 06:07:16;;;;;;;6.78;1.77;;;16.30;99.90;;;;;;4996309;28;20497;-89
2023/07/20 06:09:41;;;;;;;7.50;1.55;;;16.30;99.90;;;;;;5004566;28;20029;-88
2023/07/20 06:12:08;;;;;;;4.53;1.40;;;16.40;99.90;;;;;;5007226;28;20390;-90
2023/07/20 06:14:34;;;;;;;5.60;1.42;;;16.40;99.90;;;;;;5029576;28;20440;-91
2023/07/20 06:17:00;;;;;;;4.63;1.58;;;16.40;99.90;;;;;;4989493;28;20279;-92
2023/07/20 06:19:25;;;;;;;6.97;1.60;;;16.50;99.90;;;;;;4997971;28;20684;-90
2023/07/20 06:21:51;;;;;;;6.30;1.60;;;16.50;99.90;;;;;;5024194;28;20121;-89
2023/07/20 06:24:17;;;;;;;5.20;1.50;;;16.60;99.90;;;;;;5004260;28;20626;-91
2023/07/20 06:26:43;;;;;;;5.95;1.52;;;16.60;99.90;;;;;;5006479;28;20082;-89
2023/07/20 06:29:09;;;;;;;7.30;1.55;;;16.70;99.90;;;;;;5018097;28;20083;-91
2023/07/20 06:31:36;;;;;;;5.75;1.70;;;16.70;99.90;;;;;;5008810;28;20183;-91
2023/07/20 06:34:02;;;;;;;7.00;1.80;;;16.80;99.90;;;;;;5029383;28;20033;-89
2023/07/20 06:36:28;;;;;;;7.00;1.85;;;16.90;99.90;;;;;;5030308;28;20079;-89
2023/07/20 06:38:55;;;;;;;5.43;1.50;;;16.90;99.90;;;;;;5018411;28;20069;-87
2023/07/20 06:41:20;;;;;;;7.18;1.80;;;17.00;99.90;;;;;;5025668;28;20044;-89
2023/07/20 06:43:47;;;;;;;7.05;1.90;;;17.00;99.90;;;;;;5041613;28;20045;-87
2023/07/20 06:46:12;;;;;;;5.38;1.80;;;17.10;99.90;;;;;;5009009;28;20115;-88
2023/07/20 06:48:38;;;;;;;6.25;1.83;;;17.20;99.90;;;;;;5037479;28;20112;-89
2023/07/20 06:51:04;;;;;;;5.78;1.80;;;17.20;99.90;;;;;;5004424;28;20059;-89
2023/07/20 06:53:30;;;;;;;4.32;1.63;;;17.30;99.90;;;;;;5025835;28;20068;-87
2023/07/20 06:55:58;;;;;;;7.40;2.00;;;17.40;99.90;;;;;;5009090;28;20041;-89
2023/07/20 06:58:24;;;;;;;6.72;1.63;;;17.40;99.90;;;;;;4989626;28;20059;-90
2023/07/20 07:00:50;;;;;;;7.85;2.28;;;17.50;99.90;;;;;;5038670;28;20057;-89
2023/07/20 07:03:16;;;;;;;9.93;2.22;;;17.60;99.90;;;;;;5006833;28;20478;-90
2023/07/20 07:05:43;;;;;;;7.50;2.53;;;17.60;99.90;;;;;;5010257;28;20059;-88
2023/07/20 07:08:08;;;;;;;6.88;2.30;;;17.70;99.90;;;;;;5009001;28;20060;-90
2023/07/20 07:10:36;;;;;;;9.27;2.40;;;17.80;99.90;;;;;;5023432;28;20533;-89
2023/07/20 07:13:02;;;;;;;7.90;2.15;;;17.90;99.90;;;;;;5019503;28;20049;-93
2023/07/20 07:15:28;;;;;;;6.15;2.03;;;18.00;99.90;;;;;;5026791;28;20075;-91
2023/07/20 07:17:54;;;;;;;6.25;2.20;;;18.00;99.90;;;;;;5021894;28;20048;-90
2023/07/20 07:20:20;;;;;;;8.57;2.03;;;18.00;99.90;;;;;;5040904;28;20402;-89
2023/07/20 07:22:50;;;;;;;6.63;2.05;;;17.90;99.90;;;;;;4989796;28;20051;-91
2023/07/20 07:25:18;;;;;;;7.45;2.10;;;17.90;99.90;;;;;;5024505;28;20037;-93
2023/07/20 07:27:43;;;;;;;7.43;2.20;;;17.80;99.90;;;;;;5010729;28;20044;-90
2023/07/20 07:30:10;;;;;;;7.60;2.10;;;17.30;99.90;;;;;;5019451;28;21119;-89
2023/07/20 07:32:35;;;;;;;7.43;2.20;;;18.10;99.90;;;;;;5008979;28;20402;-91
2023/07/20 07:35:01;;;;;;;6.30;2.10;;;18.00;99.90;;;;;;5009376;28;20036;-90
2023/07/20 07:37:27;;;;;;;6.25;2.15;;;18.10;99.90;;;;;;5016733;28;20516;-91
2023/07/20 07:39:53;;;;;;;7.72;2.08;;;18.20;99.90;;;;;;5013371;28;20136;-91
2023/07/20 07:42:18;;;;;;;8.68;2.35;;;18.30;99.90;;;;;;5016911;28;20040;-90
2023/07/20 07:44:45;;;;;;;6.38;2.00;;;18.40;99.90;;;;;;5007100;28;20045;-93
2023/07/20 07:47:11;;;;;;;9.25;2.60;;;18.60;99.90;;;;;;5008155;28;20478;-94
2023/07/20 07:49:36;;;;;;;9.95;2.58;;;18.60;99.90;;;;;;5003481;28;20040;-91
2023/07/20 07:52:03;;;;;;;7.43;2.20;;;;;;;;;;5023926;28;20043;-90
2023/07/20 07:54:29;;;;;;;7.05;1.88;;;18.80;99.90;;;;;;5036369;28;20033;-88
2023/07/20 07:56:55;;;;;;;7.47;2.15;;;18.70;99.90;;;;;;5016018;28;20412;-92
2023/07/20 07:59:20;;;;;;;8.95;2.03;;;18.60;99.90;;;;;;5010195;28;20033;-91
2023/07/20 08:01:46;;;;;;;8.50;2.13;;;18.60;99.90;;;;;;5009717;28;20049;-91
2023/07/20 08:04:13;;;;;;;8.45;2.22;;;18.50;99.90;;;;;;4991508;28;20049;-90
2023/07/20 08:06:39;;;;;;;7.88;2.20;;;18.40;99.90;;;;;;5004325;28;20122;-91
2023/07/20 08:09:04;;;;;;;7.57;2.15;;;18.30;99.90;;;;;;5019949;28;20086;-91
2023/07/20 08:11:32;;;;;;;9.40;2.10;;;18.20;99.90;;;;;;5024890;28;20049;-88
2023/07/20 08:14:00;;;;;;;6.93;1.80;;;17.90;99.90;;;;;;5008988;28;20041;-90
2023/07/20 08:16:26;;;;;;;7.05;1.83;;;17.90;99.90;;;;;;5026375;28;20051;-92
2023/07/20 08:18:51;;;;;;;6.53;2.05;;;17.80;99.90;;;;;;5016882;28;20041;-91
2023/07/20 08:21:17;;;;;;;4.80;1.60;;;17.70;99.90;;;;;;5021715;28;20037;-92
2023/07/20 08:23:43;;;;;;;6.80;1.83;;;18.00;99.90;;;;;;5015211;28;20072;-92
2023/07/20 08:26:09;;;;;;;7.72;2.05;;;18.20;99.90;;;;;;5006791;28;20589;-90
2023/07/20 08:28:35;;;;;;;5.75;1.70;;;18.40;99.90;;;;;;5010072;28;20072;-92
2023/07/20 08:31:00;;;;;;;6.55;1.63;;;18.60;99.90;;;;;;5024855;28;20056;-91
2023/07/20 08:33:33;;;;;;;5.53;1.50;;;18.70;99.90;;;;;;4992765;28;20033;-91
2023/07/20 08:35:58;;;;;;;7.25;1.70;;;20.00;99.90;;;;;;4993673;28;20091;-89
2023/07/20 08:38:24;;;;;;;7.90;1.65;;;18.90;99.90;;;;;;4990932;28;20045;-94
2023/07/20 08:40:53;;;;;;;7.65;1.85;;;18.90;99.90;;;;;;5008976;28;20045;-90
2023/07/20 08:43:19;;;;;;;5.75;1.60;;;19.00;99.90;;;;;;5021135;28;20035;-90
2023/07/20 08:45:46;;;;;;;5.55;1.70;;;19.10;99.90;;;;;;5005095;28;20038;-90
2023/07/20 08:48:12;;;;;;;8.35;2.05;;;19.10;99.90;;;;;;5001513;28;20087;-88
2023/07/20 08:50:38;;;;;;;7.78;1.70;;;18.90;99.90;;;;;;5019669;28;20282;-92
2023/07/20 08:53:06;;;;;;;7.38;1.50;;;18.90;99.90;;;;;;5029340;28;20206;-90
2023/07/20 08:55:32;;;;;;;4.72;1.40;;;19.10;99.90;;;;;;5039799;28;20040;-90
2023/07/20 08:58:00;;;;;;;8.18;1.48;;;19.20;99.90;;;;;;5015652;28;20036;-92
2023/07/20 09:00:26;;;;;;;3.97;1.50;;;19.10;99.90;;;;;;5021571;28;20108;-91
2023/07/20 09:02:56;;;;;;;6.10;1.50;;;19.30;99.90;;;;;;5021271;28;20056;-91
2023/07/20 09:05:24;;;;;;;4.18;1.40;;;19.40;99.90;;;;;;5024557;28;20041;-91
2023/07/20 09:07:56;;;;;;;8.48;1.65;;;19.60;99.90;;;;;;5013992;28;20044;-92
2023/07/20 09:10:23;;;;;;;4.85;1.40;;;19.40;99.90;;;;;;4995037;28;20422;-91
2023/07/20 09:12:49;;;;;;;3.80;1.40;;;19.30;99.90;;;;;;5012844;28;20558;-92
2023/07/20 09:15:23;;;;;;;4.32;1.38;;;19.30;99.90;;;;;;5027550;28;20124;-96
2023/07/20 09:18:01;;;;;;;4.95;1.23;;;19.60;99.90;;;;;;5042940;28;20041;-94
2023/07/20 09:20:31;;;;;;;5.15;1.42;;;19.70;99.90;;;;;;5031967;28;20039;-91
2023/07/20 09:22:57;;;;;;;3.42;1.23;;;19.80;99.90;;;;;;5027055;28;20596;-92
2023/07/20 09:25:23;;;;;;;4.80;1.27;;;20.00;99.90;;;;;;5020916;28;20243;-92
2023/07/20 09:27:50;;;;;;;2.63;1.20;;;19.90;99.90;;;;;;5016521;28;20045;-92
2023/07/20 09:30:17;;;;;;;3.38;1.20;;;19.70;99.90;;;;;;5019055;28;20342;-91
2023/07/20 09:32:45;;;;;;;4.40;1.40;;;19.70;99.90;;;;;;5046600;28;20119;-94
2023/07/20 09:35:15;;;;;;;7.22;2.40;;;19.90;99.90;;;;;;5026986;28;20044;-93
2023/07/20 09:37:48;;;;;;;6.00;1.50;;;19.90;99.90;;;;;;5027108;28;20596;-94
2023/07/20 09:40:17;;;;;;;;;;;20.10;99.90;;;;;;5047143;28;20043;-94
2023/07/20 09:42:43;;;;;;;3.47;1.30;;;20.30;99.90;;;;;;5042237;28;19924;-94
2023/07/20 09:45:18;;;;;;;5.70;1.40;;;19.70;99.90;;;;;;5020103;28;20037;-96
2023/07/20 09:47:44;;;;;;;4.38;1.50;;;19.80;99.90;;;;;;5029997;28;20052;-95
2023/07/20 09:50:10;;;;;;;3.67;1.30;;;19.80;99.90;;;;;;5016775;28;20045;-93
2023/07/20 09:52:45;;;;;;;4.53;1.63;;;20.00;99.90;;;;;;5013537;28;20424;-92
2023/07/20 09:55:13;;;;;;;4.13;1.27;;;20.20;99.90;;;;;;5004906;28;20490;-94
2023/07/20 09:57:39;;;;;;;4.25;1.48;;;20.50;99.90;;;;;;5030122;28;20497;-91
2023/07/20 10:00:25;;;;;;;5.10;1.40;;;20.60;99.90;;;;;;5019702;28;20102;-92
2023/07/20 10:02:52;;;;;;;4.40;1.45;;;20.40;99.90;;;;;;5011595;28;20460;-92
2023/07/20 10:05:19;;;;;;;4.93;1.48;;;20.10;99.90;;;;;;5008255;28;20407;-89
2023/07/20 10:07:48;;;;;;;5.70;1.50;;;19.80;99.90;;;;;;5019740;28;20041;-92
2023/07/20 10:10:16;;;;;;;5.75;1.63;;;19.40;99.90;;;;;;5042645;28;20060;-90
2023/07/20 10:12:44;;;;;;;5.90;1.40;;;19.40;99.90;;;;;;5042046;28;20041;-95
2023/07/20 10:15:46;;;;;;;5.38;1.48;;;19.70;99.90;;;;;;5026398;28;20112;-90
2023/07/20 10:18:21;;;;;;;4.55;1.50;;;20.30;99.90;;;;;;5026074;28;20040;-92
2023/07/20 10:20:51;;;;;;;3.53;1.30;;;20.50;99.90;;;;;;5044349;28;20046;-91
2023/07/20 10:23:17;;;;;;;6.05;1.40;;;20.50;99.90;;;;;;5029465;28;20028;-91
2023/07/20 10:25:44;;;;;;;3.70;1.30;;;20.40;99.90;;;;;;5012868;28;20435;-91
2023/07/20 10:28:11;;;;;;;5.25;1.33;;;20.50;99.90;;;;;;5042903;28;20033;-92
2023/07/20 10:30:43;;;;;;;3.85;1.20;;;20.50;99.90;;;;;;5006744;28;20029;-94
2023/07/20 10:33:12;;;;;;;5.07;1.40;;;20.60;99.90;;;;;;5028073;28;20057;-90
2023/07/20 10:35:58;;;;;;;5.57;1.60;;;20.50;99.90;;;;;;5024884;28;20098;-96
2023/07/20 10:38:45;;;;;;;5.00;1.30;;;20.50;99.90;;;;;;5042887;28;20110;-92
2023/07/20 10:41:34;;;;;;;4.65;1.30;;;20.70;99.90;;;;;;5027756;28;20052;-94
2023/07/20 10:44:10;;;;;;;5.82;1.70;;;20.50;99.90;;;;;;5022040;28;20033;-92
2023/07/20 10:46:45;;;;;;;4.80;1.40;;;20.40;99.90;;;;;;5026893;28;20486;-91
2023/07/20 10:49:15;;;;;;;6.30;1.38;;;20.10;99.90;;;;;;5050093;28;20037;-93
2023/07/20 10:52:04;;;;;;;4.05;1.17;;;19.70;99.90;;;;;;5033824;28;20052;-94
2023/07/20 10:54:36;;;;;;;6.57;1.30;;;19.70;99.90;;;;;;5036839;28;20045;-92
2023/07/20 10:57:23;;;;;;;4.47;1.30;;;19.70;99.90;;;;;;5027831;28;20045;-91
2023/07/20 10:59:54;;;;;;;3.38;1.38;;;19.00;99.90;;;;;;5020208;28;20045;-94
2023/07/20 11:02:26;;;;;;;4.63;1.25;;;20.40;99.90;;;;;;5016235;28;20116;-95
2023/07/20 11:04:53;;;;;;;5.05;1.70;;;20.70;99.90;;;;;;5043340;28;20080;-90
2023/07/20 11:07:40;;;;;;;4.82;1.33;;;20.80;99.90;;;;;;4997539;28;20045;-90
2023/07/20 11:10:27;;;;;;;5.45;1.35;;;20.80;99.90;;;;;;5036654;28;20098;-92
2023/07/20 11:13:31;;;;;;;4.40;1.27;;;20.80;99.90;;;;;;5009782;28;20143;-93
2023/07/20 11:16:04;;;;;;;4.22;1.40;;;21.10;99.90;;;;;;5024165;28;20091;-91
2023/07/20 11:19:14;;;;;;;4.70;1.40;;;21.20;99.90;;;;;;5037058;28;20059;-92
2023/07/20 11:21:45;;;;;;;4.78;1.50;;;20.90;99.90;;;;;;5041114;28;20049;-90
2023/07/20 11:24:13;;;;;;;7.95;1.60;;;20.80;99.90;;;;;;5042553;28;20040;-92
2023/07/20 11:26:59;;;;;;;3.00;1.27;;;20.50;99.90;;;;;;5028546;28;20083;-92
2023/07/20 11:29:37;;;;;;;6.25;1.77;;;20.50;99.90;;;;;;5017583;28;20513;-92
2023/07/20 11:32:04;;;;;;;4.00;1.25;;;19.70;99.90;;;;;;5022875;28;20107;-90
2023/07/20 11:34:31;;;;;;;4.22;1.30;;;20.70;99.90;;;;;;5028399;28;20132;-90
2023/07/20 11:36:57;;;;;;;5.88;1.40;;;20.90;99.90;;;;;;5016571;28;20037;-93
2023/07/20 11:39:26;;;;;;;4.90;1.40;;;21.00;99.90;;;;;;5022735;28;20048;-92
2023/07/20 11:41:54;;;;;;;2.53;1.10;;;20.80;99.90;;;;;;5038387;28;20041;-90
2023/07/20 11:44:30;;;;;;;4.30;1.35;;;20.50;99.90;;;;;;5023231;28;20108;-94
2023/07/20 11:47:08;;;;;;;5.15;1.50;;;20.80;99.90;;;;;;5022318;28;20135;-91
2023/07/20 11:49:38;;;;;;;8.82;1.80;;;21.10;99.90;;;;;;5037600;28;20041;-90
2023/07/20 11:52:06;;;;;;;5.43;1.50;;;21.20;99.90;;;;;;5027513;28;20107;-95
2023/07/20 11:54:34;;;;;;;3.97;1.33;;;21.10;99.90;;;;;;5022702;28;20041;-93
2023/07/20 11:57:03;;;;;;;7.10;1.60;;;21.00;99.90;;;;;;5008115;28;20044;-96
2023/07/20 11:59:29;;;;;;;4.90;1.42;;;20.70;99.90;;;;;;5021739;28;20048;-92
2023/07/20 12:01:55;;;;;;;4.78;1.40;;;20.80;99.90;;;;;;5007737;28;20445;-93
2023/07/20 12:04:23;;;;;;;5.78;1.60;;;20.90;99.90;;;;;;5031364;28;20106;-94
2023/07/20 12:06:49;;;;;;;5.10;1.50;;;21.00;99.90;;;;;;5029424;28;20379;-93
2023/07/20 12:09:16;;;;;;;5.88;1.73;;;21.10;99.90;;;;;;5013529;28;20040;-92
2023/07/20 12:11:48;;;;;;;5.60;1.50;;;21.10;99.90;;;;;;5023460;28;20615;-95
2023/07/20 12:14:14;;;;;;;5.40;1.30;;;20.80;99.90;;;;;;5029806;28;20073;-95
2023/07/20 12:16:40;;;;;;;3.22;1.30;;;20.60;99.90;;;;;;5030694;28;20076;-94
2023/07/20 12:19:08;;;;;;;3.85;1.40;;;20.50;99.90;;;;;;5013545;28;20045;-94
2023/07/20 12:21:39;;;;;;;4.57;1.50;;;20.40;99.90;;;;;;5030700;28;20076;-96
2023/07/20 12:24:07;;;;;;;3.42;1.30;;;20.40;99.90;;;;;;5033163;28;20115;-93
2023/07/20 12:26:33;;;;;;;3.47;1.35;;;20.50;99.90;;;;;;5015289;28;20102;-93
2023/07/20 12:29:00;;;;;;;3.28;1.20;;;20.40;99.90;;;;;;5020372;28;20033;-95
2023/07/20 12:31:27;;;;;;;4.78;1.30;;;20.30;99.90;;;;;;4991725;28;20419;-93
2023/07/20 12:33:55;;;;;;;4.22;1.30;;;20.10;99.90;;;;;;5012538;28;20493;-94
2023/07/20 12:36:21;;;;;;;3.88;1.30;;;20.00;99.90;;;;;;5024124;28;20521;-90
2023/07/20 12:38:49;;;;;;;5.03;1.45;;;19.90;99.90;;;;;;5007783;28;20069;-93
2023/07/20 12:41:15;;;;;;;3.28;1.27;;;19.80;99.90;;;;;;5011682;28;21542;-95
2023/07/20 12:43:46;;;;;;;5.20;1.60;;;19.90;99.90;;;;;;5011768;28;20072;-96
2023/07/20 12:46:13;;;;;;;5.07;1.52;;;19.90;99.90;;;;;;5012851;28;20033;-96
2023/07/20 12:48:41;;;;;;;4.70;1.50;;;19.90;99.90;;;;;;4996964;28;20040;-91
2023/07/20 12:51:08;;;;;;;4.78;1.40;;;20.00;99.90;;;;;;5028337;28;20044;-91
2023/07/20 12:53:36;;;;;;;3.38;1.20;;;20.00;99.90;;;;;;5016003;28;20048;-93